| time (UTC) | temp F | wind direction | speed MPH | gust MPH | rain 1hr in | rain 24hr in | rain mn in | humidity % | barometer mb |
| 20260906023034 | 79 | 293 | 0.0 | 0.0 | 0.00 | 0.00 | 0.00 | 70 | 1014.6 |
| 20260906022530 | 80 | 293 | 0.0 | 0.0 | 0.00 | 0.00 | 0.00 | 69 | 1014.6 |
| 20260906022025 | 80 | 293 | 0.0 | 0.0 | 0.00 | 0.00 | 0.00 | 69 | 1014.6 |
| 20260906021521 | 80 | 293 | 0.0 | 0.0 | 0.00 | 0.00 | 0.00 | 68 | 1014.6 |
| 20260906021020 | 81 | 293 | 0.0 | 0.0 | 0.00 | 0.00 | 0.00 | 67 | 1014.6 |
| 20260906020519 | 81 | 293 | 0.0 | 0.0 | 0.00 | 0.00 | 0.00 | 66 | 1014.6 |
| 20260906020014 | 81 | 293 | 0.0 | 0.0 | 0.00 | 0.00 | 0.00 | 65 | 1014.2 |
| 20260906015512 | 82 | 293 | 0.0 | 0.0 | 0.00 | 0.00 | 0.00 | 65 | 1014.2 |
| 20260906015007 | 82 | 293 | 0.0 | 0.0 | 0.00 | 0.00 | 0.00 | 64 | 1014.2 |
| 20260906014502 | 83 | 310 | 0.0 | 0.0 | 0.00 | 0.00 | 0.00 | 63 | 1013.8 |
| 20260906013957 | 83 | 310 | 0.0 | 0.0 | 0.00 | 0.00 | 0.00 | 61 | 1014.2 |
| 20260906013452 | 83 | 311 | 0.0 | 0.0 | 0.00 | 0.00 | 0.00 | 61 | 1013.8 |
| 20260906012948 | 84 | 310 | 1.0 | 1.0 | 0.00 | 0.00 | 0.00 | 60 | 1014.2 |
| 20260906012443 | 84 | 310 | 1.0 | 1.0 | 0.00 | 0.00 | 0.00 | 59 | 1014.2 |
| 20260906011942 | 85 | 325 | 0.0 | 0.0 | 0.00 | 0.00 | 0.00 | 58 | 1013.8 |
| 20260906011438 | 85 | 292 | 0.0 | 0.0 | 0.00 | 0.00 | 0.00 | 57 | 1013.8 |
| 20260906010932 | 85 | 291 | 0.0 | 0.0 | 0.00 | 0.00 | 0.00 | 56 | 1013.8 |
| 20260906010428 | 86 | 291 | 0.0 | 0.0 | 0.00 | 0.00 | 0.00 | 56 | 1013.5 |
| 20260906005925 | 86 | 291 | 0.0 | 0.0 | 0.00 | 0.00 | 0.00 | 55 | 1013.8 |
| 20260906005424 | 87 | 290 | 0.0 | 0.0 | 0.00 | 0.00 | 0.00 | 54 | 1013.8 |
| 20260906004922 | 87 | 324 | 0.0 | 0.0 | 0.00 | 0.00 | 0.00 | 53 | 1013.8 |
| 20260906004416 | 88 | 314 | 0.0 | 0.0 | 0.00 | 0.00 | 0.00 | 52 | 1013.8 |
| 20260906003912 | 88 | 291 | 1.0 | 1.0 | 0.00 | 0.00 | 0.00 | 51 | 1013.8 |
| 20260906003407 | 89 | 291 | 1.0 | 1.0 | 0.00 | 0.00 | 0.00 | 50 | 1013.8 |
| 20260906002902 | 89 | 308 | 0.0 | 0.0 | 0.00 | 0.00 | 0.00 | 49 | 1013.5 |
| 20260906002401 | 90 | 283 | 1.0 | 1.0 | 0.00 | 0.00 | 0.00 | 48 | 1013.8 |
| 20260906001852 | 90 | 302 | 2.0 | 2.0 | 0.00 | 0.00 | 0.00 | 47 | 1013.8 |
| 20260906001348 | 91 | 173 | 2.0 | 3.0 | 0.00 | 0.00 | 0.00 | 45 | 1013.8 |
| 20260906000843 | 92 | 170 | 4.0 | 5.0 | 0.00 | 0.00 | 0.00 | 44 | 1013.8 |
| 20260906000343 | 93 | 208 | 5.0 | 6.0 | 0.00 | 0.00 | 0.00 | 43 | 1013.8 |
| 20260905235842 | 95 | 99 | 2.0 | 2.0 | 0.00 | 0.00 | 0.00 | 40 | 1013.8 |
| 20260905235337 | 95 | 199 | 2.0 | 2.0 | 0.00 | 0.00 | 0.00 | 40 | 1013.5 |
| 20260905234833 | 98 | 268 | 3.0 | 3.0 | 0.00 | 0.00 | 0.00 | 38 | 1013.5 |
| 20260905234328 | 99 | 279 | 2.0 | 2.0 | 0.00 | 0.00 | 0.00 | 36 | 1013.5 |
| 20260905233823 | 99 | 331 | 3.0 | 3.0 | 0.00 | 0.00 | 0.00 | 34 | 1013.1 |
| 20260905233318 | 99 | 332 | 2.0 | 2.0 | 0.00 | 0.00 | 0.00 | 34 | 1013.1 |
| 20260905232817 | 99 | 332 | 3.0 | 3.0 | 0.00 | 0.00 | 0.00 | 34 | 1013.1 |
| 20260905232313 | 99 | 118 | 4.0 | 5.0 | 0.00 | 0.00 | 0.00 | 33 | 1013.1 |
| 20260905231808 | 100 | 338 | 1.0 | 1.0 | 0.00 | 0.00 | 0.00 | 33 | 1013.1 |
| 20260905231303 | 100 | 325 | 0.0 | 0.0 | 0.00 | 0.00 | 0.00 | 32 | 1013.1 |
| 20260905230759 | 100 | 326 | 2.0 | 2.0 | 0.00 | 0.00 | 0.00 | 32 | 1013.1 |
| 20260905230258 | 100 | 335 | 1.0 | 0.0 | 0.00 | 0.00 | 0.00 | 33 | 1012.8 |
| 20260905225757 | 100 | 346 | 0.0 | 0.0 | 0.00 | 0.00 | 0.00 | 32 | 1012.8 |
| 20260905225252 | 100 | 315 | 2.0 | 2.0 | 0.00 | 0.00 | 0.00 | 33 | 1013.1 |
| 20260905224751 | 99 | 207 | 3.0 | 5.0 | 0.00 | 0.00 | 0.00 | 33 | 1012.8 |
| 20260905224247 | 98 | 354 | 1.0 | 2.0 | 0.00 | 0.00 | 0.00 | 34 | 1012.8 |
| 20260905223742 | 98 | 325 | 0.0 | 0.0 | 0.00 | 0.00 | 0.00 | 35 | 1012.8 |
| 20260905223240 | 98 | 326 | 1.0 | 1.0 | 0.00 | 0.00 | 0.00 | 35 | 1012.8 |
| 20260905222736 | 97 | 281 | 0.0 | 0.0 | 0.00 | 0.00 | 0.00 | 39 | 1013.1 |
| 20260905222234 | 96 | 294 | 1.0 | 1.0 | 0.00 | 0.00 | 0.00 | 36 | 1012.8 |
| 20260905221730 | 96 | 293 | 1.0 | 1.0 | 0.00 | 0.00 | 0.00 | 40 | 1013.1 |
| 20260905221227 | 97 | 300 | 1.0 | 1.0 | 0.00 | 0.00 | 0.00 | 40 | 1013.1 |
| 20260905220722 | 97 | 308 | 1.0 | 1.0 | 0.00 | 0.00 | 0.00 | 39 | 1013.1 |
| 20260905220218 | 98 | 314 | 0.0 | 0.0 | 0.00 | 0.00 | 0.00 | 37 | 1013.1 |
| 20260905215717 | 98 | 314 | 0.0 | 0.0 | 0.00 | 0.00 | 0.00 | 37 | 1013.1 |
| 20260905215213 | 99 | 314 | 1.0 | 1.0 | 0.00 | 0.00 | 0.00 | 35 | 1013.1 |
| 20260905214709 | 99 | 315 | 0.0 | 0.0 | 0.00 | 0.00 | 0.00 | 34 | 1013.5 |
| 20260905214204 | 100 | 337 | 1.0 | 1.0 | 0.00 | 0.00 | 0.00 | 34 | 1013.1 |
| 20260905213659 | 100 | 336 | 1.0 | 2.0 | 0.00 | 0.00 | 0.00 | 33 | 1013.1 |
| 20260905213155 | 100 | 330 | 1.0 | 1.0 | 0.00 | 0.00 | 0.00 | 33 | 1013.5 |
| 20260905212650 | 101 | 316 | 1.0 | 1.0 | 0.00 | 0.00 | 0.00 | 32 | 1013.5 |
| 20260905212149 | 102 | 325 | 1.0 | 1.0 | 0.00 | 0.00 | 0.00 | 31 | 1013.5 |
| 20260905211644 | 103 | 328 | 1.0 | 1.0 | 0.00 | 0.00 | 0.00 | 31 | 1013.5 |
| 20260905211140 | 104 | 331 | 1.0 | 1.0 | 0.00 | 0.00 | 0.00 | 30 | 1013.5 |
| 20260905210636 | 104 | 334 | 0.0 | 0.0 | 0.00 | 0.00 | 0.00 | 30 | 1013.1 |
| 20260905210131 | 104 | 352 | 2.0 | 3.0 | 0.00 | 0.00 | 0.00 | 29 | 1013.5 |
| 20260905205630 | 103 | 327 | 1.0 | 1.0 | 0.00 | 0.00 | 0.00 | 29 | 1013.5 |
| 20260905205130 | 103 | 55 | 3.0 | 3.0 | 0.00 | 0.00 | 0.00 | 29 | 1013.5 |
| 20260905204624 | 103 | 349 | 2.0 | 2.0 | 0.00 | 0.00 | 0.00 | 30 | 1014.2 |
| 20260905204119 | 103 | 76 | 2.0 | 2.0 | 0.00 | 0.00 | 0.00 | 30 | 1013.8 |
| 20260905203614 | 103 | 337 | 2.0 | 2.0 | 0.00 | 0.00 | 0.00 | 30 | 1014.2 |
| 20260905203108 | 103 | 335 | 3.0 | 3.0 | 0.00 | 0.00 | 0.00 | 31 | 1014.2 |
| 20260905202604 | 104 | 331 | 2.0 | 2.0 | 0.00 | 0.00 | 0.00 | 30 | 1014.2 |
| 20260905202059 | 103 | 322 | 2.0 | 2.0 | 0.00 | 0.00 | 0.00 | 30 | 1014.2 |
| 20260905201555 | 103 | 291 | 1.0 | 1.0 | 0.00 | 0.00 | 0.00 | 30 | 1014.2 |
| 20260905201054 | 103 | 172 | 2.0 | 3.0 | 0.00 | 0.00 | 0.00 | 29 | 1014.2 |
| 20260905200550 | 103 | 351 | 3.0 | 3.0 | 0.00 | 0.00 | 0.00 | 30 | 1013.8 |
| 20260905200050 | 103 | 356 | 1.0 | 1.0 | 0.00 | 0.00 | 0.00 | 30 | 1014.2 |
| 20260905195543 | 102 | 341 | 1.0 | 1.0 | 0.00 | 0.00 | 0.00 | 31 | 1014.6 |
| 20260905195039 | 102 | 342 | 1.0 | 1.0 | 0.00 | 0.00 | 0.00 | 32 | 1014.2 |
| 20260905194539 | 103 | 7 | 1.0 | 1.0 | 0.00 | 0.00 | 0.00 | 31 | 1014.6 |
| 20260905194038 | 104 | 175 | 1.0 | 2.0 | 0.00 | 0.00 | 0.00 | 30 | 1014.2 |
| 20260905193533 | 105 | 203 | 5.0 | 5.0 | 0.00 | 0.00 | 0.00 | 29 | 1014.6 |
| 20260905193028 | 105 | 349 | 5.0 | 7.0 | 0.00 | 0.00 | 0.00 | 29 | 1014.6 |
| 20260905192523 | 103 | 343 | 1.0 | 1.0 | 0.00 | 0.00 | 0.00 | 30 | 1014.9 |
| 20260905192020 | 104 | 343 | 1.0 | 1.0 | 0.00 | 0.00 | 0.00 | 31 | 1014.9 |
| 20260905191518 | 103 | 130 | 2.0 | 2.0 | 0.00 | 0.00 | 0.00 | 30 | 1014.9 |
| 20260905191018 | 101 | 341 | 0.0 | 0.0 | 0.00 | 0.00 | 0.00 | 32 | 1014.9 |
| 20260905190515 | 100 | 264 | 2.0 | 2.0 | 0.00 | 0.00 | 0.00 | 34 | 1014.9 |
| 20260905190010 | 102 | 144 | 3.0 | 5.0 | 0.00 | 0.00 | 0.00 | 33 | 1014.9 |
| 20260905185505 | 101 | 344 | 2.0 | 2.0 | 0.00 | 0.00 | 0.00 | 33 | 1015.3 |
| 20260905185003 | 101 | 331 | 3.0 | 3.0 | 0.00 | 0.00 | 0.00 | 34 | 1015.3 |
| 20260905184458 | 102 | 114 | 4.0 | 3.0 | 0.00 | 0.00 | 0.00 | 32 | 1015.3 |
| 20260905183957 | 103 | 344 | 1.0 | 2.0 | 0.00 | 0.00 | 0.00 | 32 | 1015.3 |
| 20260905183451 | 104 | 175 | 3.0 | 3.0 | 0.00 | 0.00 | 0.00 | 32 | 1015.6 |
| 20260905182946 | 102 | 295 | 0.0 | 0.0 | 0.00 | 0.00 | 0.00 | 32 | 1015.6 |
| 20260905182445 | 102 | 78 | 4.0 | 3.0 | 0.00 | 0.00 | 0.00 | 33 | 1015.9 |
| 20260905181940 | 103 | 315 | 1.0 | 1.0 | 0.00 | 0.00 | 0.00 | 32 | 1015.9 |
| 20260905181435 | 103 | 323 | 1.0 | 1.0 | 0.00 | 0.00 | 0.00 | 33 | 1015.9 |
| 20260905180934 | 101 | 337 | 1.0 | 1.0 | 0.00 | 0.00 | 0.00 | 33 | 1015.9 |
| 20260905180429 | 101 | 353 | 2.0 | 2.0 | 0.00 | 0.00 | 0.00 | 33 | 1015.9 |
| 20260905175924 | 99 | 304 | 0.0 | 0.0 | 0.00 | 0.00 | 0.00 | 35 | 1015.9 |
| 20260905175424 | 99 | 327 | 1.0 | 1.0 | 0.00 | 0.00 | 0.00 | 36 | 1016.6 |
| 20260905174919 | 99 | 326 | 0.0 | 0.0 | 0.00 | 0.00 | 0.00 | 37 | 1016.3 |
| 20260905174415 | 100 | 325 | 2.0 | 2.0 | 0.00 | 0.00 | 0.00 | 37 | 1016.6 |
| 20260905173910 | 101 | 20 | 4.0 | 5.0 | 0.00 | 0.00 | 0.00 | 34 | 1016.3 |
| 20260905173406 | 100 | 344 | 3.0 | 5.0 | 0.00 | 0.00 | 0.00 | 35 | 1016.3 |
| 20260905172901 | 101 | 345 | 4.0 | 7.0 | 0.00 | 0.00 | 0.00 | 36 | 1016.6 |
| 20260905172359 | 101 | 19 | 1.0 | 1.0 | 0.00 | 0.00 | 0.00 | 35 | 1016.6 |
| 20260905171855 | 101 | 351 | 3.0 | 3.0 | 0.00 | 0.00 | 0.00 | 35 | 1016.6 |
| 20260905171351 | 100 | 347 | 1.0 | 1.0 | 0.00 | 0.00 | 0.00 | 36 | 1016.6 |
| 20260905170848 | 100 | 322 | 4.0 | 3.0 | 0.00 | 0.00 | 0.00 | 35 | 1016.6 |
| 20260905170344 | 99 | 322 | 1.0 | 1.0 | 0.00 | 0.00 | 0.00 | 37 | 1017.0 |
| 20260905165843 | 100 | 345 | 2.0 | 3.0 | 0.00 | 0.00 | 0.00 | 37 | 1017.0 |
| 20260905165338 | 99 | 342 | 1.0 | 2.0 | 0.00 | 0.00 | 0.00 | 37 | 1017.3 |
| 20260905164832 | 99 | 332 | 4.0 | 5.0 | 0.00 | 0.00 | 0.00 | 38 | 1017.0 |
| 20260905164327 | 99 | 336 | 2.0 | 2.0 | 0.00 | 0.00 | 0.00 | 38 | 1017.3 |
| 20260905163822 | 99 | 341 | 0.0 | 0.0 | 0.00 | 0.00 | 0.00 | 38 | 1017.3 |
| 20260905163319 | 98 | 94 | 1.0 | 3.0 | 0.00 | 0.00 | 0.00 | 38 | 1017.3 |
| 20260905162814 | 98 | 306 | 0.0 | 0.0 | 0.00 | 0.00 | 0.00 | 39 | 1017.3 |
| 20260905162309 | 97 | 345 | 0.0 | 0.0 | 0.00 | 0.00 | 0.00 | 39 | 1017.3 |
| 20260905161803 | 97 | 80 | 4.0 | 5.0 | 0.00 | 0.00 | 0.00 | 40 | 1017.3 |
| 20260905161303 | 97 | 42 | 3.0 | 5.0 | 0.00 | 0.00 | 0.00 | 41 | 1017.3 |
| 20260905160801 | 98 | 230 | 3.0 | 3.0 | 0.00 | 0.00 | 0.00 | 41 | 1017.3 |
| 20260905160300 | 97 | 313 | 0.0 | 0.0 | 0.00 | 0.00 | 0.00 | 43 | 1017.3 |
| 20260905155755 | 97 | 2 | 1.0 | 1.0 | 0.00 | 0.00 | 0.00 | 43 | 1017.3 |
| 20260905155254 | 96 | 352 | 2.0 | 2.0 | 0.00 | 0.00 | 0.00 | 44 | 1017.3 |
| 20260905154749 | 95 | 233 | 2.0 | 2.0 | 0.00 | 0.00 | 0.00 | 45 | 1017.3 |
| 20260905154245 | 95 | 281 | 2.0 | 2.0 | 0.00 | 0.00 | 0.00 | 46 | 1017.0 |
| 20260905153740 | 95 | 348 | 2.0 | 2.0 | 0.00 | 0.00 | 0.00 | 46 | 1017.3 |
| 20260905153236 | 94 | 279 | 1.0 | 1.0 | 0.00 | 0.00 | 0.00 | 46 | 1017.3 |
| 20260905152730 | 93 | 5 | 1.0 | 2.0 | 0.00 | 0.00 | 0.00 | 47 | 1017.3 |
| 20260905152224 | 93 | 348 | 2.0 | 2.0 | 0.00 | 0.00 | 0.00 | 47 | 1017.3 |
| 20260905151719 | 94 | 128 | 3.0 | 3.0 | 0.00 | 0.00 | 0.00 | 48 | 1017.3 |
| 20260905151215 | 93 | 353 | 0.0 | 0.0 | 0.00 | 0.00 | 0.00 | 49 | 1017.3 |
| 20260905150710 | 91 | 329 | 0.0 | 0.0 | 0.00 | 0.00 | 0.00 | 51 | 1017.3 |
| 20260905150209 | 91 | 36 | 5.0 | 6.0 | 0.00 | 0.00 | 0.00 | 51 | 1017.0 |
| 20260905145706 | 91 | 22 | 1.0 | 1.0 | 0.00 | 0.00 | 0.00 | 51 | 1017.0 |
| 20260905145201 | 91 | 328 | 0.0 | 0.0 | 0.00 | 0.00 | 0.00 | 51 | 1017.3 |
| 20260905144655 | 91 | 37 | 0.0 | 0.0 | 0.00 | 0.00 | 0.00 | 51 | 1017.0 |
| 20260905144154 | 91 | 338 | 2.0 | 2.0 | 0.00 | 0.00 | 0.00 | 52 | 1017.0 |
| 20260905143654 | 90 | 43 | 2.0 | 2.0 | 0.00 | 0.00 | 0.00 | 53 | 1016.6 |
| 20260905143149 | 89 | 164 | 2.0 | 2.0 | 0.00 | 0.00 | 0.00 | 55 | 1017.0 |
| 20260905142648 | 88 | 353 | 0.0 | 1.0 | 0.00 | 0.00 | 0.00 | 56 | 1017.0 |
| 20260905142148 | 87 | 346 | 1.0 | 1.0 | 0.00 | 0.00 | 0.00 | 58 | 1017.0 |
| 20260905141643 | 86 | 278 | 0.0 | 0.0 | 0.00 | 0.00 | 0.00 | 64 | 1017.0 |
| 20260905141139 | 86 | 292 | 0.0 | 0.0 | 0.00 | 0.00 | 0.00 | 65 | 1016.6 |
| 20260905140633 | 85 | 292 | 0.0 | 0.0 | 0.00 | 0.00 | 0.00 | 66 | 1017.0 |
| 20260905140133 | 85 | 292 | 0.0 | 0.0 | 0.00 | 0.00 | 0.00 | 66 | 1017.0 |
| 20260905135628 | 83 | 292 | 0.0 | 0.0 | 0.00 | 0.00 | 0.00 | 68 | 1016.6 |
| 20260905135123 | 81 | 292 | 0.0 | 0.0 | 0.00 | 0.00 | 0.00 | 71 | 1016.6 |
| 20260905134618 | 81 | 292 | 0.0 | 0.0 | 0.00 | 0.00 | 0.00 | 72 | 1016.6 |
| 20260905134117 | 81 | 296 | 0.0 | 0.0 | 0.00 | 0.00 | 0.00 | 72 | 1016.6 |
| 20260905133613 | 80 | 297 | 0.0 | 0.0 | 0.00 | 0.00 | 0.00 | 73 | 1016.6 |
| 20260905133112 | 79 | 297 | 0.0 | 0.0 | 0.00 | 0.00 | 0.00 | 75 | 1016.6 |
| 20260905132612 | 78 | 297 | 0.0 | 0.0 | 0.00 | 0.00 | 0.00 | 76 | 1017.0 |
| 20260905132107 | 78 | 297 | 0.0 | 0.0 | 0.00 | 0.00 | 0.00 | 76 | 1016.6 |
| 20260905131602 | 77 | 297 | 0.0 | 0.0 | 0.00 | 0.00 | 0.00 | 77 | 1016.3 |
| 20260905131057 | 76 | 297 | 0.0 | 0.0 | 0.00 | 0.00 | 0.00 | 79 | 1016.6 |
| 20260905130556 | 75 | 297 | 0.0 | 0.0 | 0.00 | 0.00 | 0.00 | 81 | 1016.6 |
| 20260905130051 | 75 | 297 | 0.0 | 0.0 | 0.00 | 0.00 | 0.00 | 82 | 1016.6 |
| 20260905125551 | 74 | 297 | 0.0 | 0.0 | 0.00 | 0.00 | 0.00 | 83 | 1016.3 |
| 20260905125047 | 73 | 298 | 0.0 | 0.0 | 0.00 | 0.00 | 0.00 | 86 | 1016.6 |
| 20260905124544 | 72 | 298 | 0.0 | 0.0 | 0.00 | 0.00 | 0.00 | 87 | 1016.3 |
| 20260905124039 | 71 | 298 | 0.0 | 0.0 | 0.00 | 0.00 | 0.00 | 89 | 1016.3 |
| 20260905123535 | 71 | 298 | 0.0 | 0.0 | 0.00 | 0.00 | 0.00 | 91 | 1016.3 |
| 20260905123032 | 71 | 298 | 0.0 | 0.0 | 0.00 | 0.00 | 0.00 | 91 | 1016.6 |
| 20260905122531 | 70 | 298 | 0.0 | 0.0 | 0.00 | 0.00 | 0.00 | 92 | 1016.3 |
| 20260905122026 | 70 | 298 | 0.0 | 0.0 | 0.00 | 0.00 | 0.00 | 93 | 1016.3 |
| 20260905121520 | 70 | 298 | 0.0 | 0.0 | 0.00 | 0.00 | 0.00 | 93 | 1016.3 |
| 20260905121020 | 69 | 298 | 0.0 | 0.0 | 0.00 | 0.00 | 0.00 | 93 | 1016.3 |
| 20260905120514 | 69 | 297 | 0.0 | 0.0 | 0.00 | 0.00 | 0.00 | 93 | 1015.9 |
| 20260905120010 | 69 | 297 | 0.0 | 0.0 | 0.00 | 0.00 | 0.00 | 93 | 1016.3 |
| 20260905115509 | 69 | 297 | 0.0 | 0.0 | 0.00 | 0.00 | 0.00 | 93 | 1015.9 |
| 20260905115003 | 69 | 297 | 0.0 | 0.0 | 0.00 | 0.00 | 0.00 | 93 | 1015.9 |
| 20260905114457 | 69 | 297 | 0.0 | 0.0 | 0.00 | 0.00 | 0.00 | 93 | 1015.9 |
| 20260905113956 | 69 | 297 | 0.0 | 0.0 | 0.00 | 0.00 | 0.00 | 93 | 1016.3 |
| 20260905113451 | 69 | 297 | 0.0 | 0.0 | 0.00 | 0.00 | 0.00 | 93 | 1016.3 |
| 20260905112947 | 69 | 297 | 0.0 | 0.0 | 0.00 | 0.00 | 0.00 | 93 | 1016.3 |
| 20260905112442 | 69 | 297 | 0.0 | 0.0 | 0.00 | 0.00 | 0.00 | 93 | 1016.3 |
| 20260905111938 | 70 | 297 | 0.0 | 0.0 | 0.00 | 0.00 | 0.00 | 93 | 1015.9 |
| 20260905111437 | 70 | 298 | 0.0 | 0.0 | 0.00 | 0.00 | 0.00 | 93 | 1015.9 |
| 20260905110932 | 70 | 297 | 0.0 | 0.0 | 0.00 | 0.00 | 0.00 | 93 | 1015.9 |
| 20260905110425 | 70 | 298 | 0.0 | 0.0 | 0.00 | 0.00 | 0.00 | 94 | 1015.6 |
| 20260905105920 | 70 | 298 | 0.0 | 0.0 | 0.00 | 0.00 | 0.00 | 94 | 1015.9 |
| 20260905105420 | 70 | 298 | 0.0 | 0.0 | 0.00 | 0.00 | 0.00 | 94 | 1015.9 |
| 20260905104919 | 70 | 298 | 0.0 | 0.0 | 0.00 | 0.00 | 0.00 | 94 | 1016.3 |
| 20260905104416 | 70 | 298 | 0.0 | 0.0 | 0.00 | 0.00 | 0.00 | 94 | 1015.9 |
| 20260905103915 | 70 | 298 | 0.0 | 0.0 | 0.00 | 0.00 | 0.00 | 93 | 1015.6 |
| 20260905103411 | 70 | 298 | 0.0 | 0.0 | 0.00 | 0.00 | 0.00 | 93 | 1015.9 |
| 20260905102907 | 70 | 298 | 0.0 | 0.0 | 0.00 | 0.00 | 0.00 | 93 | 1015.9 |
| 20260905102403 | 70 | 298 | 0.0 | 0.0 | 0.00 | 0.00 | 0.00 | 93 | 1015.9 |
| 20260905101858 | 70 | 298 | 0.0 | 0.0 | 0.00 | 0.00 | 0.00 | 92 | 1015.9 |
| 20260905101356 | 71 | 298 | 0.0 | 0.0 | 0.00 | 0.00 | 0.00 | 92 | 1016.3 |
| 20260905100851 | 71 | 298 | 0.0 | 0.0 | 0.00 | 0.00 | 0.00 | 93 | 1015.9 |
| 20260905100347 | 71 | 298 | 0.0 | 0.0 | 0.00 | 0.00 | 0.00 | 93 | 1015.9 |
| 20260905095846 | 70 | 298 | 0.0 | 0.0 | 0.00 | 0.00 | 0.00 | 93 | 1016.3 |
| 20260905095340 | 71 | 298 | 0.0 | 0.0 | 0.00 | 0.00 | 0.00 | 93 | 1016.3 |
| 20260905094830 | 71 | 298 | 0.0 | 0.0 | 0.00 | 0.00 | 0.00 | 92 | 1016.3 |
| 20260905094325 | 71 | 298 | 0.0 | 0.0 | 0.00 | 0.00 | 0.00 | 93 | 1015.9 |
| 20260905093823 | 71 | 298 | 0.0 | 0.0 | 0.00 | 0.00 | 0.00 | 93 | 1015.6 |
| 20260905093319 | 71 | 298 | 0.0 | 0.0 | 0.00 | 0.00 | 0.00 | 92 | 1015.9 |
| 20260905092810 | 71 | 298 | 0.0 | 0.0 | 0.00 | 0.00 | 0.00 | 92 | 1015.6 |
| 20260905092310 | 71 | 298 | 0.0 | 0.0 | 0.00 | 0.00 | 0.00 | 92 | 1015.9 |
| 20260905091804 | 71 | 298 | 0.0 | 0.0 | 0.00 | 0.00 | 0.00 | 92 | 1015.6 |
| 20260905091259 | 71 | 298 | 0.0 | 0.0 | 0.00 | 0.00 | 0.00 | 91 | 1015.6 |
| 20260905090757 | 71 | 298 | 0.0 | 0.0 | 0.00 | 0.00 | 0.00 | 92 | 1015.6 |
| 20260905090254 | 71 | 298 | 0.0 | 0.0 | 0.00 | 0.00 | 0.00 | 91 | 1015.6 |
| 20260905085753 | 71 | 298 | 0.0 | 0.0 | 0.00 | 0.00 | 0.00 | 91 | 1015.6 |
| 20260905085252 | 71 | 298 | 0.0 | 0.0 | 0.00 | 0.00 | 0.00 | 91 | 1015.6 |
| 20260905084747 | 71 | 298 | 0.0 | 0.0 | 0.00 | 0.00 | 0.00 | 91 | 1015.3 |
| 20260905084247 | 72 | 298 | 0.0 | 0.0 | 0.00 | 0.00 | 0.00 | 90 | 1015.3 |
| 20260905083742 | 72 | 298 | 0.0 | 0.0 | 0.00 | 0.00 | 0.00 | 91 | 1015.6 |
| 20260905083237 | 72 | 298 | 0.0 | 0.0 | 0.00 | 0.00 | 0.00 | 91 | 1015.6 |
| 20260905082733 | 72 | 298 | 0.0 | 0.0 | 0.00 | 0.00 | 0.00 | 91 | 1015.3 |
| 20260905082229 | 72 | 298 | 0.0 | 0.0 | 0.00 | 0.00 | 0.00 | 91 | 1015.3 |
| 20260905081723 | 72 | 298 | 0.0 | 0.0 | 0.00 | 0.00 | 0.00 | 91 | 1015.3 |
| 20260905081219 | 72 | 298 | 0.0 | 0.0 | 0.00 | 0.00 | 0.00 | 91 | 1015.3 |
| 20260905080718 | 72 | 298 | 0.0 | 0.0 | 0.00 | 0.00 | 0.00 | 91 | 1015.3 |
| 20260905080213 | 72 | 298 | 0.0 | 0.0 | 0.00 | 0.00 | 0.00 | 91 | 1015.3 |
| 20260905075712 | 72 | 298 | 0.0 | 0.0 | 0.00 | 0.00 | 0.00 | 91 | 1015.6 |
| 20260905075212 | 72 | 298 | 0.0 | 0.0 | 0.00 | 0.00 | 0.00 | 91 | 1015.3 |
| 20260905074711 | 72 | 298 | 0.0 | 0.0 | 0.00 | 0.00 | 0.00 | 91 | 1015.6 |
| 20260905074207 | 72 | 298 | 0.0 | 0.0 | 0.00 | 0.00 | 0.00 | 91 | 1015.3 |
| 20260905073702 | 72 | 298 | 0.0 | 0.0 | 0.00 | 0.00 | 0.00 | 91 | 1015.3 |
| 20260905073157 | 72 | 298 | 0.0 | 0.0 | 0.00 | 0.00 | 0.00 | 90 | 1015.6 |
| 20260905072656 | 72 | 298 | 0.0 | 0.0 | 0.00 | 0.00 | 0.00 | 90 | 1015.6 |
| 20260905072152 | 73 | 298 | 0.0 | 0.0 | 0.00 | 0.00 | 0.00 | 89 | 1015.6 |
| 20260905071648 | 73 | 298 | 0.0 | 0.0 | 0.00 | 0.00 | 0.00 | 89 | 1015.6 |
| 20260905071144 | 73 | 298 | 0.0 | 0.0 | 0.00 | 0.00 | 0.00 | 89 | 1015.6 |
| 20260905070639 | 73 | 298 | 0.0 | 0.0 | 0.00 | 0.00 | 0.00 | 88 | 1015.9 |
| 20260905070134 | 73 | 298 | 0.0 | 0.0 | 0.00 | 0.00 | 0.00 | 88 | 1015.9 |
| 20260905065633 | 73 | 298 | 0.0 | 0.0 | 0.00 | 0.00 | 0.00 | 87 | 1015.9 |
| 20260905065128 | 73 | 298 | 0.0 | 0.0 | 0.00 | 0.00 | 0.00 | 87 | 1015.9 |
| 20260905064623 | 73 | 298 | 0.0 | 0.0 | 0.00 | 0.00 | 0.00 | 88 | 1015.9 |
| 20260905064119 | 73 | 298 | 0.0 | 0.0 | 0.00 | 0.00 | 0.00 | 88 | 1015.9 |
| 20260905063617 | 73 | 298 | 0.0 | 0.0 | 0.00 | 0.00 | 0.00 | 88 | 1015.6 |
| 20260905063114 | 73 | 298 | 0.0 | 0.0 | 0.00 | 0.00 | 0.00 | 88 | 1015.9 |
| 20260905062609 | 73 | 298 | 0.0 | 0.0 | 0.00 | 0.00 | 0.00 | 88 | 1015.6 |
| 20260905062108 | 73 | 298 | 0.0 | 0.0 | 0.00 | 0.00 | 0.00 | 88 | 1015.6 |
| 20260905061603 | 74 | 298 | 0.0 | 0.0 | 0.00 | 0.00 | 0.00 | 87 | 1015.9 |
| 20260905061102 | 74 | 298 | 0.0 | 0.0 | 0.00 | 0.00 | 0.00 | 88 | 1015.6 |
| 20260905060558 | 74 | 298 | 0.0 | 0.0 | 0.00 | 0.00 | 0.00 | 88 | 1015.6 |
| 20260905060054 | 74 | 298 | 0.0 | 0.0 | 0.00 | 0.00 | 0.00 | 87 | 1015.6 |
| 20260905055552 | 74 | 298 | 0.0 | 0.0 | 0.00 | 0.00 | 0.00 | 87 | 1015.6 |
| 20260905055048 | 74 | 298 | 0.0 | 0.0 | 0.00 | 0.00 | 0.00 | 87 | 1015.6 |
| 20260905054543 | 74 | 298 | 0.0 | 0.0 | 0.00 | 0.00 | 0.00 | 87 | 1015.6 |
| 20260905054039 | 74 | 298 | 0.0 | 0.0 | 0.00 | 0.00 | 0.00 | 87 | 1015.6 |
| 20260905053533 | 74 | 298 | 0.0 | 0.0 | 0.00 | 0.00 | 0.00 | 86 | 1015.6 |
| 20260905053029 | 75 | 298 | 0.0 | 0.0 | 0.00 | 0.00 | 0.00 | 86 | 1015.6 |
| 20260905052527 | 75 | 298 | 0.0 | 0.0 | 0.00 | 0.00 | 0.00 | 86 | 1015.3 |
| 20260905052022 | 75 | 298 | 0.0 | 0.0 | 0.00 | 0.00 | 0.00 | 86 | 1015.6 |
| 20260905051517 | 75 | 298 | 0.0 | 0.0 | 0.00 | 0.00 | 0.00 | 85 | 1015.6 |
| 20260905051014 | 75 | 298 | 0.0 | 0.0 | 0.00 | 0.00 | 0.00 | 85 | 1015.3 |
| 20260905050510 | 75 | 298 | 0.0 | 0.0 | 0.00 | 0.00 | 0.00 | 85 | 1015.3 |
| 20260905050007 | 75 | 298 | 0.0 | 0.0 | 0.00 | 0.00 | 0.00 | 85 | 1015.6 |
| 20260905045501 | 75 | 298 | 0.0 | 0.0 | 0.00 | 0.00 | 0.00 | 84 | 1015.6 |
| 20260905044956 | 75 | 298 | 0.0 | 0.0 | 0.00 | 0.00 | 0.00 | 85 | 1015.3 |
| 20260905044456 | 75 | 298 | 0.0 | 0.0 | 0.00 | 0.00 | 0.00 | 85 | 1015.3 |
| 20260905043950 | 75 | 298 | 0.0 | 0.0 | 0.00 | 0.00 | 0.00 | 85 | 1015.3 |
| 20260905043450 | 75 | 298 | 0.0 | 0.0 | 0.00 | 0.00 | 0.00 | 84 | 1015.6 |
| 20260905042945 | 75 | 298 | 0.0 | 0.0 | 0.00 | 0.00 | 0.00 | 84 | 1015.3 |
| 20260905042444 | 76 | 298 | 0.0 | 0.0 | 0.00 | 0.00 | 0.00 | 83 | 1015.6 |
| 20260905041940 | 76 | 298 | 0.0 | 0.0 | 0.00 | 0.00 | 0.00 | 83 | 1015.6 |
| 20260905041430 | 76 | 298 | 0.0 | 0.0 | 0.00 | 0.00 | 0.00 | 83 | 1015.6 |
| 20260905040925 | 76 | 298 | 0.0 | 0.0 | 0.00 | 0.00 | 0.00 | 83 | 1015.6 |
| 20260905040424 | 76 | 298 | 0.0 | 0.0 | 0.00 | 0.00 | 0.00 | 82 | 1015.9 |
| 20260905035923 | 76 | 300 | 0.0 | 0.0 | 0.00 | 0.00 | 0.00 | 82 | 1015.3 |
| 20260905035414 | 77 | 303 | 0.0 | 0.0 | 0.00 | 0.00 | 0.00 | 82 | 1015.6 |
| 20260905034910 | 77 | 304 | 0.0 | 0.0 | 0.00 | 0.00 | 0.00 | 81 | 1015.6 |
| 20260905034405 | 77 | 304 | 0.0 | 0.0 | 0.00 | 0.00 | 0.00 | 81 | 1015.6 |
| 20260905033903 | 77 | 304 | 0.0 | 0.0 | 0.00 | 0.00 | 0.00 | 81 | 1015.9 |
| 20260905033359 | 77 | 304 | 0.0 | 0.0 | 0.00 | 0.00 | 0.00 | 81 | 1015.6 |
| 20260905032858 | 77 | 304 | 0.0 | 0.0 | 0.00 | 0.00 | 0.00 | 80 | 1015.6 |
| 20260905032354 | 78 | 304 | 0.0 | 0.0 | 0.00 | 0.00 | 0.00 | 80 | 1015.6 |
| 20260905031848 | 78 | 304 | 0.0 | 0.0 | 0.00 | 0.00 | 0.00 | 80 | 1015.6 |
| 20260905031339 | 78 | 304 | 0.0 | 0.0 | 0.00 | 0.00 | 0.00 | 80 | 1015.6 |
| 20260905030834 | 78 | 304 | 0.0 | 0.0 | 0.00 | 0.00 | 0.00 | 79 | 1015.3 |
| 20260905030330 | 78 | 304 | 0.0 | 0.0 | 0.00 | 0.00 | 0.00 | 79 | 1015.9 |
| 20260905025829 | 78 | 304 | 0.0 | 0.0 | 0.00 | 0.00 | 0.00 | 79 | 1015.3 |
| 20260905025324 | 78 | 304 | 0.0 | 0.0 | 0.00 | 0.00 | 0.00 | 79 | 1015.6 |
| 20260905024821 | 78 | 304 | 0.0 | 0.0 | 0.00 | 0.00 | 0.00 | 78 | 1015.3 |
| 20260905024316 | 79 | 304 | 0.0 | 0.0 | 0.00 | 0.00 | 0.00 | 78 | 1015.3 |
| 20260905023811 | 79 | 304 | 0.0 | 0.0 | 0.00 | 0.00 | 0.00 | 77 | 1015.3 |
| 20260905023306 | 79 | 304 | 0.0 | 0.0 | 0.00 | 0.00 | 0.00 | 76 | 1015.6 |